sensor_id;sensor_type;location;lat;lon;timestamp;P1;durP1;ratioP1;P2;durP2;ratioP2
76978;SDS011;65911;47.502;19.148;2023-05-07T00:00:37;11.95;;;7.25;;
76978;SDS011;65911;47.502;19.148;2023-05-07T00:03:39;10.45;;;7.97;;
76978;SDS011;65911;47.502;19.148;2023-05-07T00:06:41;11.93;;;7.53;;
76978;SDS011;65911;47.502;19.148;2023-05-07T00:09:44;11.13;;;7.90;;
76978;SDS011;65911;47.502;19.148;2023-05-07T00:12:46;12.32;;;8.20;;
76978;SDS011;65911;47.502;19.148;2023-05-07T00:15:48;11.20;;;8.47;;
76978;SDS011;65911;47.502;19.148;2023-05-07T00:18:50;10.27;;;7.40;;
76978;SDS011;65911;47.502;19.148;2023-05-07T00:21:54;12.05;;;8.13;;
76978;SDS011;65911;47.502;19.148;2023-05-07T00:24:57;10.82;;;8.15;;
76978;SDS011;65911;47.502;19.148;2023-05-07T00:28:00;10.10;;;7.97;;
76978;SDS011;65911;47.502;19.148;2023-05-07T00:31:05;11.20;;;8.10;;
76978;SDS011;65911;47.502;19.148;2023-05-07T00:34:07;10.57;;;7.57;;
76978;SDS011;65911;47.502;19.148;2023-05-07T00:37:10;11.50;;;7.40;;
76978;SDS011;65911;47.502;19.148;2023-05-07T00:40:13;10.55;;;7.57;;
76978;SDS011;65911;47.502;19.148;2023-05-07T00:43:16;12.52;;;8.18;;
76978;SDS011;65911;47.502;19.148;2023-05-07T00:46:22;13.13;;;8.27;;
76978;SDS011;65911;47.502;19.148;2023-05-07T00:49:34;9.07;;;7.25;;
76978;SDS011;65911;47.502;19.148;2023-05-07T00:52:40;11.93;;;8.32;;
76978;SDS011;65911;47.502;19.148;2023-05-07T00:55:44;12.68;;;7.28;;
76978;SDS011;65911;47.502;19.148;2023-05-07T00:58:49;10.80;;;7.93;;
76978;SDS011;65911;47.502;19.148;2023-05-07T01:01:51;10.52;;;8.18;;
76978;SDS011;65911;47.502;19.148;2023-05-07T01:04:54;13.23;;;7.97;;
76978;SDS011;65911;47.502;19.148;2023-05-07T01:07:57;11.40;;;7.77;;
76978;SDS011;65911;47.502;19.148;2023-05-07T01:11:00;9.70;;;7.70;;
76978;SDS011;65911;47.502;19.148;2023-05-07T01:14:02;11.52;;;7.70;;
76978;SDS011;65911;47.502;19.148;2023-05-07T01:17:05;11.87;;;8.03;;
76978;SDS011;65911;47.502;19.148;2023-05-07T01:20:09;11.57;;;7.78;;
76978;SDS011;65911;47.502;19.148;2023-05-07T01:23:13;11.27;;;8.07;;
76978;SDS011;65911;47.502;19.148;2023-05-07T01:26:15;10.75;;;8.07;;
76978;SDS011;65911;47.502;19.148;2023-05-07T01:29:20;10.10;;;8.30;;
76978;SDS011;65911;47.502;19.148;2023-05-07T01:32:25;10.70;;;8.20;;
76978;SDS011;65911;47.502;19.148;2023-05-07T01:35:32;11.00;;;8.02;;
76978;SDS011;65911;47.502;19.148;2023-05-07T01:38:38;11.23;;;7.97;;
76978;SDS011;65911;47.502;19.148;2023-05-07T01:41:44;10.35;;;7.32;;
76978;SDS011;65911;47.502;19.148;2023-05-07T01:44:47;10.97;;;8.17;;
76978;SDS011;65911;47.502;19.148;2023-05-07T01:47:49;10.40;;;7.70;;
76978;SDS011;65911;47.502;19.148;2023-05-07T01:50:52;13.57;;;8.25;;
76978;SDS011;65911;47.502;19.148;2023-05-07T01:53:54;11.00;;;7.97;;
76978;SDS011;65911;47.502;19.148;2023-05-07T01:56:57;12.90;;;8.30;;
76978;SDS011;65911;47.502;19.148;2023-05-07T01:59:59;10.63;;;8.40;;
76978;SDS011;65911;47.502;19.148;2023-05-07T02:03:02;11.85;;;7.55;;
76978;SDS011;65911;47.502;19.148;2023-05-07T02:06:12;11.63;;;8.10;;
76978;SDS011;65911;47.502;19.148;2023-05-07T02:09:15;9.83;;;7.60;;
76978;SDS011;65911;47.502;19.148;2023-05-07T02:12:21;10.43;;;8.07;;
76978;SDS011;65911;47.502;19.148;2023-05-07T02:15:24;13.77;;;7.65;;
76978;SDS011;65911;47.502;19.148;2023-05-07T02:18:26;10.30;;;7.53;;
76978;SDS011;65911;47.502;19.148;2023-05-07T02:21:29;9.73;;;7.95;;
76978;SDS011;65911;47.502;19.148;2023-05-07T02:24:32;12.25;;;7.72;;
76978;SDS011;65911;47.502;19.148;2023-05-07T02:27:34;11.43;;;7.97;;
76978;SDS011;65911;47.502;19.148;2023-05-07T02:30:36;11.73;;;8.35;;
76978;SDS011;65911;47.502;19.148;2023-05-07T02:33:39;9.95;;;7.93;;
76978;SDS011;65911;47.502;19.148;2023-05-07T02:36:43;11.80;;;7.65;;
76978;SDS011;65911;47.502;19.148;2023-05-07T02:39:48;12.63;;;7.80;;
76978;SDS011;65911;47.502;19.148;2023-05-07T02:42:51;11.55;;;8.30;;
76978;SDS011;65911;47.502;19.148;2023-05-07T02:46:00;12.98;;;7.60;;
76978;SDS011;65911;47.502;19.148;2023-05-07T02:49:07;11.60;;;7.73;;
76978;SDS011;65911;47.502;19.148;2023-05-07T02:52:09;9.32;;;7.63;;
76978;SDS011;65911;47.502;19.148;2023-05-07T02:55:11;9.15;;;7.32;;
76978;SDS011;65911;47.502;19.148;2023-05-07T02:58:14;10.30;;;7.47;;
76978;SDS011;65911;47.502;19.148;2023-05-07T03:01:17;9.02;;;7.47;;
76978;SDS011;65911;47.502;19.148;2023-05-07T03:04:31;10.90;;;7.95;;
76978;SDS011;65911;47.502;19.148;2023-05-07T03:07:35;10.88;;;8.25;;
76978;SDS011;65911;47.502;19.148;2023-05-07T03:10:37;10.57;;;7.27;;
76978;SDS011;65911;47.502;19.148;2023-05-07T03:13:40;9.82;;;7.03;;
76978;SDS011;65911;47.502;19.148;2023-05-07T03:16:42;9.40;;;7.07;;
76978;SDS011;65911;47.502;19.148;2023-05-07T03:19:45;12.47;;;7.33;;
76978;SDS011;65911;47.502;19.148;2023-05-07T03:22:47;11.13;;;7.60;;
76978;SDS011;65911;47.502;19.148;2023-05-07T03:25:49;9.93;;;7.68;;
76978;SDS011;65911;47.502;19.148;2023-05-07T03:28:51;11.40;;;7.95;;
76978;SDS011;65911;47.502;19.148;2023-05-07T03:31:53;11.57;;;8.57;;
76978;SDS011;65911;47.502;19.148;2023-05-07T03:34:56;10.43;;;8.15;;
76978;SDS011;65911;47.502;19.148;2023-05-07T03:37:58;11.55;;;8.00;;
76978;SDS011;65911;47.502;19.148;2023-05-07T03:41:03;11.33;;;7.33;;
76978;SDS011;65911;47.502;19.148;2023-05-07T03:44:06;11.13;;;8.10;;
76978;SDS011;65911;47.502;19.148;2023-05-07T03:47:09;14.13;;;8.10;;
76978;SDS011;65911;47.502;19.148;2023-05-07T03:50:13;10.77;;;8.33;;
76978;SDS011;65911;47.502;19.148;2023-05-07T03:53:15;11.32;;;7.80;;
76978;SDS011;65911;47.502;19.148;2023-05-07T03:56:18;11.55;;;8.18;;
76978;SDS011;65911;47.502;19.148;2023-05-07T03:59:21;11.40;;;8.65;;
76978;SDS011;65911;47.502;19.148;2023-05-07T04:02:24;10.68;;;8.45;;
76978;SDS011;65911;47.502;19.148;2023-05-07T04:05:27;10.23;;;8.13;;
76978;SDS011;65911;47.502;19.148;2023-05-07T04:08:34;12.65;;;8.40;;
76978;SDS011;65911;47.502;19.148;2023-05-07T04:11:37;11.03;;;7.80;;
76978;SDS011;65911;47.502;19.148;2023-05-07T04:14:44;13.48;;;8.77;;
76978;SDS011;65911;47.502;19.148;2023-05-07T04:17:47;13.05;;;8.73;;
76978;SDS011;65911;47.502;19.148;2023-05-07T04:20:52;10.23;;;8.37;;
76978;SDS011;65911;47.502;19.148;2023-05-07T04:23:55;10.52;;;8.65;;
76978;SDS011;65911;47.502;19.148;2023-05-07T04:26:58;10.30;;;8.27;;
76978;SDS011;65911;47.502;19.148;2023-05-07T04:30:01;11.30;;;8.25;;
76978;SDS011;65911;47.502;19.148;2023-05-07T04:33:07;11.30;;;8.43;;
76978;SDS011;65911;47.502;19.148;2023-05-07T04:36:10;10.68;;;8.60;;
76978;SDS011;65911;47.502;19.148;2023-05-07T04:39:20;12.57;;;8.80;;
76978;SDS011;65911;47.502;19.148;2023-05-07T04:42:23;10.77;;;8.77;;
76978;SDS011;65911;47.502;19.148;2023-05-07T04:45:26;10.75;;;8.57;;
76978;SDS011;65911;47.502;19.148;2023-05-07T04:48:29;10.45;;;8.02;;
76978;SDS011;65911;47.502;19.148;2023-05-07T04:51:33;13.07;;;9.00;;
76978;SDS011;65911;47.502;19.148;2023-05-07T04:54:35;13.88;;;8.75;;
76978;SDS011;65911;47.502;19.148;2023-05-07T04:57:38;13.57;;;9.18;;
76978;SDS011;65911;47.502;19.148;2023-05-07T05:00:44;12.25;;;9.30;;
76978;SDS011;65911;47.502;19.148;2023-05-07T05:03:47;12.77;;;9.50;;
76978;SDS011;65911;47.502;19.148;2023-05-07T05:06:50;12.43;;;8.90;;
76978;SDS011;65911;47.502;19.148;2023-05-07T05:09:52;11.43;;;8.77;;
76978;SDS011;65911;47.502;19.148;2023-05-07T05:12:54;11.43;;;9.10;;
76978;SDS011;65911;47.502;19.148;2023-05-07T05:15:58;12.30;;;8.75;;
76978;SDS011;65911;47.502;19.148;2023-05-07T05:19:02;10.93;;;8.57;;
76978;SDS011;65911;47.502;19.148;2023-05-07T05:22:06;11.97;;;8.97;;
76978;SDS011;65911;47.502;19.148;2023-05-07T05:25:08;10.20;;;8.02;;
76978;SDS011;65911;47.502;19.148;2023-05-07T05:28:11;12.35;;;8.45;;
76978;SDS011;65911;47.502;19.148;2023-05-07T05:31:13;10.45;;;8.32;;
76978;SDS011;65911;47.502;19.148;2023-05-07T05:34:16;10.18;;;8.23;;
76978;SDS011;65911;47.502;19.148;2023-05-07T05:37:21;13.95;;;9.85;;
76978;SDS011;65911;47.502;19.148;2023-05-07T05:40:24;12.60;;;9.23;;
76978;SDS011;65911;47.502;19.148;2023-05-07T05:43:27;12.77;;;9.13;;
76978;SDS011;65911;47.502;19.148;2023-05-07T05:46:29;10.63;;;7.63;;
76978;SDS011;65911;47.502;19.148;2023-05-07T05:49:31;9.15;;;7.10;;
76978;SDS011;65911;47.502;19.148;2023-05-07T05:52:34;10.93;;;8.17;;
76978;SDS011;65911;47.502;19.148;2023-05-07T05:55:37;9.45;;;7.78;;
76978;SDS011;65911;47.502;19.148;2023-05-07T05:58:40;12.00;;;7.25;;
76978;SDS011;65911;47.502;19.148;2023-05-07T06:01:43;7.30;;;6.07;;
76978;SDS011;65911;47.502;19.148;2023-05-07T06:04:46;7.68;;;6.22;;
76978;SDS011;65911;47.502;19.148;2023-05-07T06:07:52;8.80;;;6.10;;
76978;SDS011;65911;47.502;19.148;2023-05-07T06:10:55;8.40;;;5.68;;
76978;SDS011;65911;47.502;19.148;2023-05-07T06:13:58;6.90;;;5.20;;
76978;SDS011;65911;47.502;19.148;2023-05-07T06:17:01;6.78;;;5.40;;
76978;SDS011;65911;47.502;19.148;2023-05-07T06:20:04;8.68;;;5.90;;
76978;SDS011;65911;47.502;19.148;2023-05-07T06:23:07;7.33;;;5.77;;
76978;SDS011;65911;47.502;19.148;2023-05-07T06:26:10;7.22;;;5.35;;
76978;SDS011;65911;47.502;19.148;2023-05-07T06:29:16;7.07;;;5.75;;
76978;SDS011;65911;47.502;19.148;2023-05-07T06:32:18;6.93;;;5.10;;
76978;SDS011;65911;47.502;19.148;2023-05-07T06:35:21;10.05;;;5.20;;
76978;SDS011;65911;47.502;19.148;2023-05-07T06:38:23;8.27;;;4.90;;
76978;SDS011;65911;47.502;19.148;2023-05-07T06:41:25;6.38;;;5.43;;
76978;SDS011;65911;47.502;19.148;2023-05-07T06:44:30;6.87;;;5.20;;
76978;SDS011;65911;47.502;19.148;2023-05-07T06:47:45;6.40;;;4.93;;
76978;SDS011;65911;47.502;19.148;2023-05-07T06:50:47;7.53;;;4.43;;
76978;SDS011;65911;47.502;19.148;2023-05-07T06:53:49;6.00;;;4.53;;
76978;SDS011;65911;47.502;19.148;2023-05-07T06:56:52;5.70;;;3.70;;
76978;SDS011;65911;47.502;19.148;2023-05-07T06:59:54;4.57;;;3.55;;
76978;SDS011;65911;47.502;19.148;2023-05-07T07:02:57;4.40;;;3.42;;
76978;SDS011;65911;47.502;19.148;2023-05-07T07:06:02;4.40;;;3.40;;
76978;SDS011;65911;47.502;19.148;2023-05-07T07:09:06;3.80;;;3.08;;
76978;SDS011;65911;47.502;19.148;2023-05-07T07:12:09;3.15;;;2.60;;
76978;SDS011;65911;47.502;19.148;2023-05-07T07:15:14;2.70;;;2.50;;
76978;SDS011;65911;47.502;19.148;2023-05-07T07:18:17;2.60;;;2.05;;
76978;SDS011;65911;47.502;19.148;2023-05-07T07:21:21;3.25;;;2.03;;
76978;SDS011;65911;47.502;19.148;2023-05-07T07:24:24;3.00;;;2.30;;
76978;SDS011;65911;47.502;19.148;2023-05-07T07:27:31;2.53;;;2.13;;
76978;SDS011;65911;47.502;19.148;2023-05-07T07:30:33;3.97;;;2.38;;
76978;SDS011;65911;47.502;19.148;2023-05-07T07:33:36;2.47;;;2.15;;
76978;SDS011;65911;47.502;19.148;2023-05-07T07:36:39;2.03;;;1.80;;
76978;SDS011;65911;47.502;19.148;2023-05-07T07:39:51;2.60;;;2.20;;
76978;SDS011;65911;47.502;19.148;2023-05-07T07:42:54;2.67;;;2.15;;
76978;SDS011;65911;47.502;19.148;2023-05-07T07:45:57;2.33;;;2.10;;
76978;SDS011;65911;47.502;19.148;2023-05-07T07:49:00;3.40;;;2.28;;
76978;SDS011;65911;47.502;19.148;2023-05-07T07:52:02;2.58;;;2.00;;
76978;SDS011;65911;47.502;19.148;2023-05-07T07:55:20;3.40;;;2.00;;
76978;SDS011;65911;47.502;19.148;2023-05-07T07:58:26;2.88;;;1.90;;
76978;SDS011;65911;47.502;19.148;2023-05-07T08:01:30;2.17;;;1.90;;
76978;SDS011;65911;47.502;19.148;2023-05-07T08:04:33;2.33;;;2.00;;
76978;SDS011;65911;47.502;19.148;2023-05-07T08:07:38;3.40;;;1.70;;
76978;SDS011;65911;47.502;19.148;2023-05-07T08:10:41;3.38;;;2.00;;
76978;SDS011;65911;47.502;19.148;2023-05-07T08:13:51;2.03;;;1.70;;
76978;SDS011;65911;47.502;19.148;2023-05-07T08:16:54;2.07;;;1.77;;
76978;SDS011;65911;47.502;19.148;2023-05-07T08:19:57;3.95;;;2.00;;
76978;SDS011;65911;47.502;19.148;2023-05-07T08:22:59;3.10;;;2.25;;
76978;SDS011;65911;47.502;19.148;2023-05-07T08:26:02;3.43;;;2.30;;
76978;SDS011;65911;47.502;19.148;2023-05-07T08:29:05;2.80;;;2.30;;
76978;SDS011;65911;47.502;19.148;2023-05-07T08:32:07;3.25;;;2.13;;
76978;SDS011;65911;47.502;19.148;2023-05-07T08:35:09;3.42;;;2.30;;
76978;SDS011;65911;47.502;19.148;2023-05-07T08:38:12;2.95;;;2.58;;
76978;SDS011;65911;47.502;19.148;2023-05-07T08:41:15;2.85;;;2.08;;
76978;SDS011;65911;47.502;19.148;2023-05-07T08:44:20;4.32;;;1.70;;
76978;SDS011;65911;47.502;19.148;2023-05-07T08:47:27;2.80;;;1.70;;
76978;SDS011;65911;47.502;19.148;2023-05-07T08:50:37;2.78;;;2.03;;
76978;SDS011;65911;47.502;19.148;2023-05-07T08:53:41;4.00;;;1.75;;
76978;SDS011;65911;47.502;19.148;2023-05-07T08:56:46;3.07;;;1.80;;
76978;SDS011;65911;47.502;19.148;2023-05-07T08:59:49;2.63;;;1.65;;
76978;SDS011;65911;47.502;19.148;2023-05-07T09:02:53;2.63;;;2.10;;
76978;SDS011;65911;47.502;19.148;2023-05-07T09:05:55;2.30;;;1.90;;
76978;SDS011;65911;47.502;19.148;2023-05-07T09:09:00;2.70;;;1.98;;
76978;SDS011;65911;47.502;19.148;2023-05-07T09:12:04;3.58;;;1.70;;
76978;SDS011;65911;47.502;19.148;2023-05-07T09:15:09;2.90;;;2.28;;
76978;SDS011;65911;47.502;19.148;2023-05-07T09:18:12;3.10;;;1.80;;
76978;SDS011;65911;47.502;19.148;2023-05-07T09:21:19;2.30;;;1.73;;
76978;SDS011;65911;47.502;19.148;2023-05-07T09:24:24;3.33;;;1.73;;
76978;SDS011;65911;47.502;19.148;2023-05-07T09:27:28;3.77;;;1.87;;
76978;SDS011;65911;47.502;19.148;2023-05-07T09:30:31;3.35;;;1.50;;
76978;SDS011;65911;47.502;19.148;2023-05-07T09:33:36;1.55;;;1.45;;
76978;SDS011;65911;47.502;19.148;2023-05-07T09:36:40;2.40;;;1.67;;
76978;SDS011;65911;47.502;19.148;2023-05-07T09:39:43;1.67;;;1.58;;
76978;SDS011;65911;47.502;19.148;2023-05-07T09:42:49;2.42;;;1.67;;
76978;SDS011;65911;47.502;19.148;2023-05-07T09:45:52;1.60;;;1.35;;
76978;SDS011;65911;47.502;19.148;2023-05-07T09:48:58;2.60;;;1.27;;
76978;SDS011;65911;47.502;19.148;2023-05-07T09:52:02;3.17;;;1.80;;
76978;SDS011;65911;47.502;19.148;2023-05-07T09:55:09;2.25;;;1.58;;
76978;SDS011;65911;47.502;19.148;2023-05-07T09:58:13;3.43;;;1.57;;
76978;SDS011;65911;47.502;19.148;2023-05-07T10:01:17;1.65;;;1.55;;
76978;SDS011;65911;47.502;19.148;2023-05-07T10:04:35;1.80;;;1.10;;
76978;SDS011;65911;47.502;19.148;2023-05-07T10:07:55;1.80;;;1.33;;
76978;SDS011;65911;47.502;19.148;2023-05-07T10:10:59;1.92;;;1.60;;
76978;SDS011;65911;47.502;19.148;2023-05-07T10:14:16;1.63;;;1.23;;
76978;SDS011;65911;47.502;19.148;2023-05-07T10:17:19;1.67;;;1.58;;
76978;SDS011;65911;47.502;19.148;2023-05-07T10:20:23;2.43;;;0.90;;
76978;SDS011;65911;47.502;19.148;2023-05-07T10:23:29;1.23;;;1.13;;
76978;SDS011;65911;47.502;19.148;2023-05-07T10:26:34;1.83;;;1.00;;
76978;SDS011;65911;47.502;19.148;2023-05-07T10:29:56;1.80;;;1.60;;
76978;SDS011;65911;47.502;19.148;2023-05-07T10:33:21;1.80;;;1.27;;
76978;SDS011;65911;47.502;19.148;2023-05-07T10:36:26;1.83;;;1.33;;
76978;SDS011;65911;47.502;19.148;2023-05-07T10:39:29;2.15;;;1.25;;
76978;SDS011;65911;47.502;19.148;2023-05-07T10:42:32;1.98;;;1.30;;
76978;SDS011;65911;47.502;19.148;2023-05-07T10:45:35;1.90;;;1.75;;
76978;SDS011;65911;47.502;19.148;2023-05-07T10:52:28;1.80;;;1.70;;
76978;SDS011;65911;47.502;19.148;2023-05-07T10:55:40;2.05;;;1.85;;
76978;SDS011;65911;47.502;19.148;2023-05-07T10:58:50;2.28;;;1.70;;
76978;SDS011;65911;47.502;19.148;2023-05-07T11:02:04;2.10;;;1.90;;
76978;SDS011;65911;47.502;19.148;2023-05-07T11:05:21;2.28;;;1.63;;
76978;SDS011;65911;47.502;19.148;2023-05-07T11:08:56;2.58;;;1.80;;
76978;SDS011;65911;47.502;19.148;2023-05-07T11:15:50;3.22;;;1.70;;
76978;SDS011;65911;47.502;19.148;2023-05-07T11:19:11;2.30;;;2.10;;
76978;SDS011;65911;47.502;19.148;2023-05-07T11:26:03;1.93;;;1.70;;
76978;SDS011;65911;47.502;19.148;2023-05-07T11:29:10;2.60;;;1.80;;
76978;SDS011;65911;47.502;19.148;2023-05-07T11:32:27;2.00;;;1.73;;
76978;SDS011;65911;47.502;19.148;2023-05-07T11:35:44;3.27;;;1.70;;
76978;SDS011;65911;47.502;19.148;2023-05-07T11:38:49;2.47;;;2.00;;
76978;SDS011;65911;47.502;19.148;2023-05-07T11:41:51;1.70;;;1.60;;
76978;SDS011;65911;47.502;19.148;2023-05-07T11:44:54;3.03;;;2.30;;
76978;SDS011;65911;47.502;19.148;2023-05-07T11:47:57;2.33;;;2.08;;
76978;SDS011;65911;47.502;19.148;2023-05-07T11:51:00;2.20;;;1.90;;
76978;SDS011;65911;47.502;19.148;2023-05-07T11:54:03;3.88;;;1.60;;
76978;SDS011;65911;47.502;19.148;2023-05-07T11:57:14;2.67;;;1.60;;
76978;SDS011;65911;47.502;19.148;2023-05-07T12:00:16;2.13;;;1.75;;
76978;SDS011;65911;47.502;19.148;2023-05-07T12:03:19;2.03;;;1.80;;
76978;SDS011;65911;47.502;19.148;2023-05-07T12:06:22;2.40;;;1.80;;
76978;SDS011;65911;47.502;19.148;2023-05-07T12:09:25;3.13;;;1.90;;
76978;SDS011;65911;47.502;19.148;2023-05-07T12:12:27;1.90;;;1.70;;
76978;SDS011;65911;47.502;19.148;2023-05-07T12:15:30;2.33;;;1.90;;
76978;SDS011;65911;47.502;19.148;2023-05-07T12:18:32;3.08;;;2.15;;
76978;SDS011;65911;47.502;19.148;2023-05-07T12:21:38;3.15;;;2.03;;
76978;SDS011;65911;47.502;19.148;2023-05-07T12:24:45;2.65;;;2.00;;
76978;SDS011;65911;47.502;19.148;2023-05-07T12:27:51;2.57;;;1.80;;
76978;SDS011;65911;47.502;19.148;2023-05-07T12:30:54;1.80;;;1.70;;
76978;SDS011;65911;47.502;19.148;2023-05-07T12:34:10;3.63;;;1.77;;
76978;SDS011;65911;47.502;19.148;2023-05-07T12:37:16;2.50;;;1.70;;
76978;SDS011;65911;47.502;19.148;2023-05-07T12:40:36;2.42;;;1.70;;
76978;SDS011;65911;47.502;19.148;2023-05-07T12:43:39;1.92;;;1.60;;
76978;SDS011;65911;47.502;19.148;2023-05-07T12:46:46;1.73;;;1.35;;
76978;SDS011;65911;47.502;19.148;2023-05-07T12:49:50;1.77;;;1.63;;
76978;SDS011;65911;47.502;19.148;2023-05-07T12:52:52;2.58;;;2.10;;
76978;SDS011;65911;47.502;19.148;2023-05-07T12:55:55;2.20;;;1.83;;
76978;SDS011;65911;47.502;19.148;2023-05-07T12:58:58;2.67;;;1.77;;
76978;SDS011;65911;47.502;19.148;2023-05-07T13:02:01;2.40;;;1.90;;
76978;SDS011;65911;47.502;19.148;2023-05-07T13:05:03;2.50;;;1.60;;
76978;SDS011;65911;47.502;19.148;2023-05-07T13:08:06;2.10;;;1.90;;
76978;SDS011;65911;47.502;19.148;2023-05-07T13:11:08;2.13;;;1.92;;
76978;SDS011;65911;47.502;19.148;2023-05-07T13:14:12;3.55;;;1.60;;
76978;SDS011;65911;47.502;19.148;2023-05-07T13:17:14;4.35;;;1.80;;
76978;SDS011;65911;47.502;19.148;2023-05-07T13:20:16;2.35;;;1.90;;
76978;SDS011;65911;47.502;19.148;2023-05-07T13:23:19;2.33;;;1.85;;
76978;SDS011;65911;47.502;19.148;2023-05-07T13:26:21;2.40;;;1.90;;
76978;SDS011;65911;47.502;19.148;2023-05-07T13:29:28;2.13;;;1.93;;
76978;SDS011;65911;47.502;19.148;2023-05-07T13:32:45;4.07;;;1.77;;
76978;SDS011;65911;47.502;19.148;2023-05-07T13:36:03;2.92;;;1.65;;
76978;SDS011;65911;47.502;19.148;2023-05-07T13:39:07;2.30;;;1.80;;
76978;SDS011;65911;47.502;19.148;2023-05-07T13:42:11;2.28;;;1.60;;
76978;SDS011;65911;47.502;19.148;2023-05-07T13:45:13;2.25;;;1.80;;
76978;SDS011;65911;47.502;19.148;2023-05-07T13:48:16;2.10;;;1.90;;
76978;SDS011;65911;47.502;19.148;2023-05-07T13:51:18;2.83;;;1.70;;
76978;SDS011;65911;47.502;19.148;2023-05-07T13:54:20;2.15;;;1.95;;
76978;SDS011;65911;47.502;19.148;2023-05-07T13:57:23;3.05;;;1.60;;
76978;SDS011;65911;47.502;19.148;2023-05-07T14:00:28;1.53;;;1.27;;
76978;SDS011;65911;47.502;19.148;2023-05-07T14:03:30;2.17;;;1.15;;
76978;SDS011;65911;47.502;19.148;2023-05-07T14:06:34;1.67;;;1.30;;
76978;SDS011;65911;47.502;19.148;2023-05-07T14:09:37;2.15;;;1.52;;
76978;SDS011;65911;47.502;19.148;2023-05-07T14:12:39;2.28;;;1.52;;
76978;SDS011;65911;47.502;19.148;2023-05-07T14:15:56;2.58;;;1.75;;
76978;SDS011;65911;47.502;19.148;2023-05-07T14:18:59;3.22;;;2.00;;
76978;SDS011;65911;47.502;19.148;2023-05-07T14:22:15;2.07;;;1.63;;
76978;SDS011;65911;47.502;19.148;2023-05-07T14:25:17;2.50;;;1.80;;
76978;SDS011;65911;47.502;19.148;2023-05-07T14:28:25;2.42;;;1.55;;
76978;SDS011;65911;47.502;19.148;2023-05-07T14:31:27;2.50;;;2.10;;
76978;SDS011;65911;47.502;19.148;2023-05-07T14:34:30;1.88;;;1.60;;
76978;SDS011;65911;47.502;19.148;2023-05-07T14:37:33;1.70;;;1.60;;
76978;SDS011;65911;47.502;19.148;2023-05-07T14:40:35;3.80;;;1.70;;
76978;SDS011;65911;47.502;19.148;2023-05-07T14:43:37;1.40;;;1.30;;
76978;SDS011;65911;47.502;19.148;2023-05-07T14:46:40;1.70;;;1.42;;
76978;SDS011;65911;47.502;19.148;2023-05-07T14:49:42;1.90;;;1.42;;
76978;SDS011;65911;47.502;19.148;2023-05-07T14:52:46;2.37;;;1.30;;
76978;SDS011;65911;47.502;19.148;2023-05-07T14:55:48;2.22;;;1.52;;
76978;SDS011;65911;47.502;19.148;2023-05-07T14:58:50;2.22;;;1.20;;
76978;SDS011;65911;47.502;19.148;2023-05-07T15:02:06;2.05;;;1.38;;
76978;SDS011;65911;47.502;19.148;2023-05-07T15:05:11;1.87;;;1.40;;
76978;SDS011;65911;47.502;19.148;2023-05-07T15:08:14;2.17;;;1.58;;
76978;SDS011;65911;47.502;19.148;2023-05-07T15:11:16;1.70;;;1.30;;
76978;SDS011;65911;47.502;19.148;2023-05-07T15:14:18;2.47;;;1.52;;
76978;SDS011;65911;47.502;19.148;2023-05-07T15:17:23;3.03;;;1.33;;
76978;SDS011;65911;47.502;19.148;2023-05-07T15:20:26;2.95;;;1.52;;
76978;SDS011;65911;47.502;19.148;2023-05-07T15:23:28;2.72;;;1.88;;
76978;SDS011;65911;47.502;19.148;2023-05-07T15:26:30;3.10;;;1.60;;
76978;SDS011;65911;47.502;19.148;2023-05-07T15:29:33;2.45;;;2.10;;
76978;SDS011;65911;47.502;19.148;2023-05-07T15:32:37;3.58;;;1.65;;
76978;SDS011;65911;47.502;19.148;2023-05-07T15:35:40;4.50;;;1.97;;
76978;SDS011;65911;47.502;19.148;2023-05-07T15:38:56;2.53;;;1.60;;
76978;SDS011;65911;47.502;19.148;2023-05-07T15:41:59;3.00;;;1.80;;
76978;SDS011;65911;47.502;19.148;2023-05-07T15:45:03;2.65;;;2.13;;
76978;SDS011;65911;47.502;19.148;2023-05-07T15:48:05;2.63;;;2.20;;
76978;SDS011;65911;47.502;19.148;2023-05-07T15:51:09;3.33;;;1.90;;
76978;SDS011;65911;47.502;19.148;2023-05-07T15:54:15;3.97;;;2.10;;
76978;SDS011;65911;47.502;19.148;2023-05-07T15:57:32;2.63;;;1.80;;
76978;SDS011;65911;47.502;19.148;2023-05-07T16:00:37;2.67;;;2.35;;
76978;SDS011;65911;47.502;19.148;2023-05-07T16:03:42;2.80;;;2.13;;
76978;SDS011;65911;47.502;19.148;2023-05-07T16:07:02;3.13;;;2.00;;
76978;SDS011;65911;47.502;19.148;2023-05-07T16:10:05;2.00;;;1.80;;
76978;SDS011;65911;47.502;19.148;2023-05-07T16:13:09;3.50;;;2.17;;
76978;SDS011;65911;47.502;19.148;2023-05-07T16:16:12;2.15;;;1.92;;
76978;SDS011;65911;47.502;19.148;2023-05-07T16:19:14;4.20;;;1.85;;
76978;SDS011;65911;47.502;19.148;2023-05-07T16:22:17;2.42;;;1.90;;
76978;SDS011;65911;47.502;19.148;2023-05-07T16:25:20;2.42;;;1.90;;
76978;SDS011;65911;47.502;19.148;2023-05-07T16:28:22;3.13;;;1.60;;
76978;SDS011;65911;47.502;19.148;2023-05-07T16:31:26;1.87;;;1.47;;
76978;SDS011;65911;47.502;19.148;2023-05-07T16:34:43;1.50;;;1.30;;
76978;SDS011;65911;47.502;19.148;2023-05-07T16:37:59;4.38;;;1.80;;
76978;SDS011;65911;47.502;19.148;2023-05-07T16:41:01;1.95;;;1.60;;
76978;SDS011;65911;47.502;19.148;2023-05-07T16:44:17;2.35;;;1.60;;
76978;SDS011;65911;47.502;19.148;2023-05-07T16:47:19;2.38;;;1.63;;
76978;SDS011;65911;47.502;19.148;2023-05-07T16:50:22;1.63;;;1.42;;
76978;SDS011;65911;47.502;19.148;2023-05-07T16:53:25;1.00;;;0.90;;
76978;SDS011;65911;47.502;19.148;2023-05-07T16:56:27;3.58;;;1.70;;
76978;SDS011;65911;47.502;19.148;2023-05-07T16:59:29;1.50;;;1.35;;
76978;SDS011;65911;47.502;19.148;2023-05-07T17:02:34;3.50;;;1.53;;
76978;SDS011;65911;47.502;19.148;2023-05-07T17:05:36;2.85;;;1.33;;
76978;SDS011;65911;47.502;19.148;2023-05-07T17:08:39;1.95;;;1.40;;
76978;SDS011;65911;47.502;19.148;2023-05-07T17:11:44;2.72;;;1.63;;
76978;SDS011;65911;47.502;19.148;2023-05-07T17:14:46;4.47;;;1.33;;
76978;SDS011;65911;47.502;19.148;2023-05-07T17:17:48;2.80;;;1.40;;
76978;SDS011;65911;47.502;19.148;2023-05-07T17:20:51;2.05;;;1.50;;
76978;SDS011;65911;47.502;19.148;2023-05-07T17:23:53;1.95;;;1.17;;
76978;SDS011;65911;47.502;19.148;2023-05-07T17:26:59;1.80;;;1.10;;
76978;SDS011;65911;47.502;19.148;2023-05-07T17:30:04;2.53;;;1.45;;
76978;SDS011;65911;47.502;19.148;2023-05-07T17:33:06;2.55;;;1.25;;
76978;SDS011;65911;47.502;19.148;2023-05-07T17:36:22;1.17;;;1.00;;
76978;SDS011;65911;47.502;19.148;2023-05-07T17:39:38;1.80;;;1.40;;
76978;SDS011;65911;47.502;19.148;2023-05-07T17:42:41;2.35;;;1.10;;
76978;SDS011;65911;47.502;19.148;2023-05-07T17:45:43;2.00;;;1.13;;
76978;SDS011;65911;47.502;19.148;2023-05-07T17:48:59;2.83;;;0.98;;
76978;SDS011;65911;47.502;19.148;2023-05-07T17:52:01;1.88;;;1.15;;
76978;SDS011;65911;47.502;19.148;2023-05-07T17:55:04;1.50;;;1.23;;
76978;SDS011;65911;47.502;19.148;2023-05-07T17:58:06;1.75;;;1.30;;
76978;SDS011;65911;47.502;19.148;2023-05-07T18:01:10;1.92;;;1.25;;
76978;SDS011;65911;47.502;19.148;2023-05-07T18:04:12;1.85;;;1.10;;
76978;SDS011;65911;47.502;19.148;2023-05-07T18:07:15;1.70;;;1.03;;
76978;SDS011;65911;47.502;19.148;2023-05-07T18:10:31;1.65;;;1.00;;
76978;SDS011;65911;47.502;19.148;2023-05-07T18:13:33;2.13;;;1.10;;
76978;SDS011;65911;47.502;19.148;2023-05-07T18:16:35;1.87;;;1.13;;
76978;SDS011;65911;47.502;19.148;2023-05-07T18:19:37;1.80;;;1.40;;
76978;SDS011;65911;47.502;19.148;2023-05-07T18:22:40;1.40;;;1.23;;